• Join FlightAware (Why Join?)
  • Login
  • US Flag 
06:26PM EDT


 

Airport Tracker/Info


-or-


 

Live Flight TrackerFlight Track Log ✈ UAL1097 ✈ 20-Nov-2013 ✈ MROC / SJO - KIAH

Flight Track Log - Related Links

Times and Time Zones

All times are in EST time to prevent confusion due to time zone crossing. See the UAL1097 flight status page for this flight to view local times or setup timezone preferences in your user account.

Time Position Orientation Groundspeed Altitude Reporting Facility
EST Latitude Longitude Course Direction KTS MPH feet Rate Location/Type
08:43AM 10.3116 -84.3603 335° Northwest  Level FlightAware Approximate
08:44AM 10.4175 -84.4109 335° Northwest  Level FlightAware Approximate
08:45AM 10.5233 -84.4615 335° Northwest  Level FlightAware Approximate
08:46AM 10.6292 -84.5121 335° Northwest  Level FlightAware Approximate
08:47AM 10.7351 -84.5628 335° Northwest  Level FlightAware Approximate
08:48AM 10.8409 -84.6135 335° Northwest  Level FlightAware Approximate
08:49AM 10.9468 -84.6642 335° Northwest  Level FlightAware Approximate
08:50AM 11.0526 -84.7150 335° Northwest  Level FlightAware Approximate
08:51AM 11.1585 -84.7658 335° Northwest  Level FlightAware Approximate
08:52AM 11.2643 -84.8166 335° Northwest  Level FlightAware Approximate
08:53AM 11.3664 -84.8658 335° Northwest  Level FlightAware Approximate
08:54AM 11.4686 -84.9149 335° Northwest  Level FlightAware Approximate
08:55AM 11.5708 -84.9641 335° Northwest  Level FlightAware Approximate
08:56AM 11.6722 -85.0148 336° Northwest  Level Estimated
08:57AM 11.7754 -85.0618 336° Northwest  Level FlightAware Approximate
08:58AM 11.8785 -85.1089 336° Northwest  Level FlightAware Approximate
08:59AM 11.9817 -85.1559 336° Northwest  Level FlightAware Approximate
09:00AM 12.0848 -85.2030 336° Northwest  Level FlightAware Approximate
09:01AM 12.1862 -85.2540 335° Northwest  Level Estimated
09:02AM 12.2885 -85.3030 335° Northwest  Level FlightAware Approximate
09:03AM 12.3907 -85.3521 335° Northwest  Level FlightAware Approximate
09:04AM 12.4930 -85.4012 335° Northwest  Level FlightAware Approximate
09:05AM 12.5953 -85.4504 335° Northwest  Level FlightAware Approximate
09:06AM 12.6975 -85.4995 335° Northwest  Level FlightAware Approximate
09:07AM 12.7998 -85.5488 335° Northwest  Level FlightAware Approximate
09:08AM 12.9020 -85.5981 335° Northwest  Level FlightAware Approximate
09:09AM 13.0042 -85.6474 335° Northwest  Level FlightAware Approximate
09:10AM 13.1064 -85.6967 335° Northwest  Level FlightAware Approximate
09:11AM 13.2086 -85.7461 335° Northwest  Level FlightAware Approximate
09:12AM 13.3108 -85.7955 335° Northwest  Level FlightAware Approximate
09:13AM 13.4145 -85.8457 335° Northwest  Level FlightAware Approximate
09:14AM 13.5182 -85.8960 335° Northwest  Level FlightAware Approximate
09:15AM 13.6219 -85.9463 335° Northwest  Level FlightAware Approximate
09:16AM 13.7256 -85.9967 335° Northwest  Level FlightAware Approximate
09:17AM 13.8293 -86.0471 335° Northwest  Level FlightAware Approximate
09:18AM 13.9330 -86.0975 335° Northwest  Level FlightAware Approximate
09:19AM 14.0366 -86.1480 335° Northwest  Level FlightAware Approximate
09:20AM 14.1403 -86.1985 335° Northwest  Level FlightAware Approximate
09:21AM 14.2439 -86.2491 335° Northwest  Level FlightAware Approximate
09:22AM 14.3476 -86.2997 335° Northwest  Level FlightAware Approximate
09:23AM 14.4512 -86.3504 335° Northwest  Level FlightAware Approximate
09:24AM 14.5548 -86.4011 335° Northwest  Level FlightAware Approximate
09:25AM 14.6584 -86.4519 335° Northwest  Level FlightAware Approximate
09:26AM 14.7619 -86.5027 335° Northwest  Level FlightAware Approximate
09:27AM 14.8655 -86.5535 335° Northwest  Level FlightAware Approximate
09:28AM 14.9691 -86.6044 335° Northwest  Level FlightAware Approximate
09:29AM 15.0726 -86.6554 335° Northwest  Level FlightAware Approximate
09:30AM 15.1762 -86.7064 335° Northwest  Level FlightAware Approximate
09:31AM 15.2786 -86.7599 334° Northwest  Level Estimated
09:32AM 15.3821 -86.8109 335° Northwest  Level FlightAware Approximate
09:33AM 15.4856 -86.8621 335° Northwest  Level FlightAware Approximate
09:34AM 15.5891 -86.9132 335° Northwest  Level FlightAware Approximate
09:35AM 15.6926 -86.9645 335° Northwest  Level FlightAware Approximate
09:36AM 15.7961 -87.0157 335° Northwest  Level FlightAware Approximate
09:37AM 15.8996 -87.0671 334° Northwest  Level FlightAware Approximate
09:38AM 16.0030 -87.1185 334° Northwest  Level FlightAware Approximate
09:39AM 16.1065 -87.1699 334° Northwest  Level FlightAware Approximate
09:40AM 16.2099 -87.2214 334° Northwest  Level FlightAware Approximate
09:41AM 16.3133 -87.2729 334° Northwest  Level FlightAware Approximate
09:42AM 16.4167 -87.3245 334° Northwest  Level FlightAware Approximate
09:43AM 16.5201 -87.3762 334° Northwest  Level FlightAware Approximate
09:44AM 16.6235 -87.4279 334° Northwest  Level FlightAware Approximate
09:45AM 16.7269 -87.4797 334° Northwest  Level FlightAware Approximate
09:46AM 16.8289 -87.5342 334° Northwest  Level Estimated
09:47AM 16.9322 -87.5862 334° Northwest  Level FlightAware Approximate
09:48AM 17.0355 -87.6382 334° Northwest  Level FlightAware Approximate
09:49AM 17.1388 -87.6903 334° Northwest  Level FlightAware Approximate
09:50AM 17.2420 -87.7425 334° Northwest  Level FlightAware Approximate
09:51AM 17.3453 -87.7947 334° Northwest  Level FlightAware Approximate
09:52AM 17.4485 -87.8470 334° Northwest  Level FlightAware Approximate
09:53AM 17.5517 -87.8993 334° Northwest  Level FlightAware Approximate
09:54AM 17.6549 -87.9517 334° Northwest  Level FlightAware Approximate
09:55AM 17.7581 -88.0042 334° Northwest  Level FlightAware Approximate
09:56AM 17.8613 -88.0567 334° Northwest  Level FlightAware Approximate
09:57AM 17.9644 -88.1093 334° Northwest  Level FlightAware Approximate
09:58AM 18.0676 -88.1619 334° Northwest  Level FlightAware Approximate
09:59AM 18.1707 -88.2146 334° Northwest  Level FlightAware Approximate
10:00AM 18.2738 -88.2674 334° Northwest  Level FlightAware Approximate
10:01AM 18.3755 -88.3231 336° Northwest  Level Estimated
10:02AM 18.4802 -88.3725 336° Northwest  Level FlightAware Approximate
10:03AM 18.5798 -88.4273 334° Northwest  Level Estimated
10:04AM 18.6810 -88.4791 334° Northwest  Level FlightAware Approximate
10:05AM 18.7821 -88.5309 334° Northwest  Level FlightAware Approximate
10:06AM 18.8832 -88.5827 334° Northwest  Level FlightAware Approximate
10:07AM 18.9844 -88.6346 334° Northwest  Level FlightAware Approximate
10:08AM 19.0854 -88.6866 334° Northwest  Level FlightAware Approximate
10:09AM 19.1865 -88.7387 334° Northwest  Level FlightAware Approximate
10:10AM 19.2876 -88.7908 334° Northwest  Level FlightAware Approximate
10:11AM 19.3886 -88.8430 334° Northwest  Level FlightAware Approximate
10:12AM 19.4896 -88.8952 334° Northwest  Level FlightAware Approximate
10:13AM 19.5907 -88.9475 334° Northwest  Level FlightAware Approximate
10:14AM 19.6917 -88.9999 334° Northwest  Level FlightAware Approximate
10:15AM 19.7926 -89.0523 334° Northwest  Level FlightAware Approximate
10:16AM 19.8936 -89.1048 334° Northwest  Level FlightAware Approximate
10:17AM 19.9946 -89.1574 334° Northwest  Level FlightAware Approximate
10:18AM 20.0955 -89.2101 334° Northwest  Level FlightAware Approximate
10:19AM 20.1964 -89.2628 334° Northwest  Level FlightAware Approximate
10:20AM 20.2973 -89.3155 334° Northwest  Level FlightAware Approximate
10:21AM 20.3982 -89.3684 334° Northwest  Level FlightAware Approximate
10:22AM 20.4991 -89.4213 334° Northwest  Level FlightAware Approximate
10:23AM 20.5999 -89.4743 334° Northwest  Level FlightAware Approximate
10:24AM 20.7008 -89.5274 334° Northwest  Level FlightAware Approximate
10:25AM 20.7997 -89.5844 336° Northwest  Level Estimated
10:26AM 20.9024 -89.6334 336° Northwest  Level FlightAware Approximate
10:27AM 21.0050 -89.6825 336° Northwest  Level FlightAware Approximate
10:28AM 21.1038 -89.7399 337° Northwest  Level Estimated
10:29AM 21.2079 -89.7854 338° Northwest  Level FlightAware Approximate
10:30AM 21.3120 -89.8309 338° Northwest  Level FlightAware Approximate
10:31AM 21.4106 -89.8888 337° Northwest  Level Estimated
10:32AM 21.5141 -89.9361 337° Northwest  Level FlightAware Approximate
10:33AM 21.6175 -89.9834 337° Northwest  Level FlightAware Approximate
10:34AM 21.7209 -90.0307 337° Northwest  Level FlightAware Approximate
10:35AM 21.8243 -90.0782 337° Northwest  Level FlightAware Approximate
10:36AM 21.9277 -90.1257 337° Northwest  Level FlightAware Approximate
10:37AM 22.0311 -90.1733 337° Northwest  Level FlightAware Approximate
10:38AM 22.1345 -90.2209 337° Northwest  Level FlightAware Approximate
10:39AM 22.2378 -90.2686 337° Northwest  Level FlightAware Approximate
10:40AM 22.3412 -90.3164 337° Northwest  Level FlightAware Approximate
10:41AM 22.4445 -90.3643 337° Northwest  Level FlightAware Approximate
10:42AM 22.5473 -90.4120 337° Northwest  Level FlightAware Approximate
10:43AM 22.6501 -90.4598 337° Northwest  Level FlightAware Approximate
10:44AM 22.7528 -90.5076 337° Northwest  Level FlightAware Approximate
10:45AM 22.8556 -90.5555 337° Northwest  Level FlightAware Approximate
10:46AM 22.9584 -90.6035 337° Northwest  Level FlightAware Approximate
10:47AM 23.0611 -90.6516 337° Northwest  Level FlightAware Approximate
10:48AM 23.1638 -90.6997 337° Northwest  Level FlightAware Approximate
10:49AM 23.2665 -90.7479 337° Northwest  Level FlightAware Approximate
10:50AM 23.3692 -90.7962 337° Northwest  Level FlightAware Approximate
10:51AM 23.4719 -90.8445 337° Northwest  Level FlightAware Approximate
10:52AM 23.5746 -90.8929 337° Northwest  Level FlightAware Approximate
10:53AM 23.6772 -90.9415 337° Northwest  Level FlightAware Approximate
10:54AM 23.7798 -90.9900 337° Northwest  Level FlightAware Approximate
10:55AM 23.8825 -91.0387 337° Northwest  Level FlightAware Approximate
10:56AM 23.9851 -91.0874 337° Northwest  Level FlightAware Approximate
10:57AM 24.0876 -91.1362 337° Northwest  Level FlightAware Approximate
10:58AM 24.1902 -91.1851 337° Northwest  Level FlightAware Approximate
10:59AM 24.2927 -91.2341 336° Northwest  Level FlightAware Approximate
11:00AM 24.3878 -91.2988 330° Northwest  Level Estimated
11:01AM 24.4854 -91.3589 331° Northwest  Level FlightAware Approximate
11:02AM 24.5829 -91.4190 331° Northwest  Level FlightAware Approximate
11:03AM 24.6805 -91.4793 331° Northwest  Level FlightAware Approximate
11:04AM 24.7780 -91.5396 331° Northwest  Level FlightAware Approximate
11:05AM 24.8754 -91.6001 331° Northwest  Level FlightAware Approximate
11:06AM 24.9729 -91.6606 331° Northwest  Level FlightAware Approximate
11:07AM 25.0703 -91.7212 331° Northwest  Level FlightAware Approximate
11:08AM 25.1677 -91.7820 331° Northwest  Level FlightAware Approximate
11:09AM 25.2651 -91.8428 331° Northwest  Level FlightAware Approximate
11:10AM 25.3625 -91.9037 331° Northwest  Level FlightAware Approximate
11:11AM 25.4598 -91.9647 330° Northwest  Level FlightAware Approximate
11:12AM 25.5566 -92.0256 330° Northwest  Level FlightAware Approximate
11:13AM 25.6502 -92.0924 330° Northwest  Level Estimated
11:14AM 25.7467 -92.1539 330° Northwest  Level FlightAware Approximate
11:14AM 26.5486 -92.6781 330° Northwest 425 489 36,000  Level Houston Center
11:15AM 25.8432 -92.2156 330° Northwest  Level FlightAware Approximate
11:15AM 26.6514 -92.7444 330° Northwest 425 489 36,000  Level Houston Center
11:16AM 25.9397 -92.2773 330° Northwest  Level FlightAware Approximate
11:16AM 26.7553 -92.8144 329° Northwest 430 495 36,000  Level Houston Center
11:17AM 26.0361 -92.3392 330° Northwest  Level FlightAware Approximate
11:17AM 26.8672 -92.8717 335° Northwest 438 504 36,000  Level Houston Center
11:18AM 26.1325 -92.4011 330° Northwest  Level FlightAware Approximate
11:18AM 26.9847 -92.9139 342° North 444 511 35,900  Level Houston Center
11:19AM 26.2289 -92.4632 330° Northwest  Level FlightAware Approximate
11:19AM 27.1033 -92.9647 339° North 439 505 36,000  Level Houston Center
11:20AM 27.2167 -93.0103 340° North 434 499 36,000 -60 Level Houston Center
11:21AM 27.3497 -93.0619 341° North 436 502 35,900  Descending Houston Center
11:22AM 27.4631 -93.1100 339° North 436 502 36,000  Climbing Houston Center
11:23AM 27.5783 -93.1569 340° North 438 504 36,000  Level Houston Center
11:24AM 27.6931 -93.2056 339° North 439 505 36,000  Level Houston Center
11:25AM 27.8128 -93.2478 343° North 436 502 36,000  Level Houston Center
11:26AM 27.9283 -93.2908 342° North 436 502 36,000  Level Houston Center
11:27AM 28.0661 -93.3422 342° North 435 501 36,000  Level Houston Center
11:29AM 28.1797 -93.3864 341° North 433 498 36,000  Level Houston Center
11:30AM 28.2928 -93.4275 342° North 428 493 36,000  Level Houston Center
11:31AM 28.4064 -93.4697 342° North 429 494 36,000  Level Houston Center
11:32AM 28.5189 -93.5133 341° North 427 491 36,000  Level Houston Center
11:33AM 28.6544 -93.5636 342° North 427 491 36,000  Level Houston Center
11:34AM 28.7669 -93.6067 341° North 427 491 36,000 -1,140 Level Houston Center
11:35AM 28.8758 -93.6478 342° North 424 488 33,700 -2,400 Descending Houston Center
11:36AM 28.9889 -93.6908 342° North 425 489 31,000 -2,400 Descending Houston Center
11:37AM 29.1003 -93.7342 341° North 422 486 28,800 -2,280 Descending Houston Center
11:38AM 29.2294 -93.7817 342° North 406 467 26,300 -2,280 Descending Houston Center
11:39AM 29.3325 -93.8228 341° North 393 452 24,200 -2,040 Descending Houston Center
11:40AM 29.4333 -93.8606 342° North 383 441 22,200 -1,980 Descending Houston Center
11:41AM 29.5100 -93.9181 327° Northwest 356 410 20,500 -1,860 Descending Houston Center
11:41AM 29.5128 -93.9211 316° Northwest 354 407 20,300 -1,920 Descending Houston Center
11:41AM 29.5175 -93.9508 280° West 342 394 19,900 -1,920 Descending Houston Center
11:42AM 29.5219 -94.0558 273° West 338 389 18,100 -1,800 Descending Houston Center
11:43AM 29.5269 -94.1375 274° West 340 391 16,500 -2,100 Descending Houston Center
11:43AM 29.5272 -94.1706 271° West 340 391 16,000 -2,280 Descending Houston Center
11:44AM 29.5314 -94.2667 273° West 338 389 14,200 -1,980 Descending Houston Center
11:44AM 29.5300 -94.2808 264° West 334 384 14,000 -1,500 Descending Houston Center
11:45AM 29.5422 -94.3678 279° West 325 374 12,700 -1,380 Descending Houston Center
11:45AM 29.5461 -94.3797 291° West 311 358 12,600 -900 Descending Houston Center
11:46AM 29.5806 -94.4528 298° West 301 346 11,800 -1,140 Descending Houston Center
11:46AM 29.5842 -94.4661 287° West 287 330 11,500 -1,860 Descending Houston Center
11:47AM 29.6153 -94.5344 298° West 288 331 9,900 -1,920 Descending Houston Center
11:47AM 29.6219 -94.5525 293° West 294 338 9,600 -1,560 Descending Houston Center
11:48AM 29.6603 -94.6414 296° West 286 329 8,100 -1,440 Descending Houston Center
11:49AM 29.6919 -94.7147 296° West 284 327 6,700 -1,560 Descending Houston Center
11:49AM 29.6958 -94.7283 288° West 282 325 6,500 -720 Descending Houston Center
11:50AM 29.7308 -94.8083 297° West 272 313 5,900 -300 Descending Houston Center
11:51AM 29.7581 -94.8717 296° West 273 314 6,000 60 Climbing Houston Center
11:51AM 29.7636 -94.8861 294° West 273 314 6,000  Level Houston Center
11:52AM 29.7906 -94.9494 296° West 273 314 6,000  Level Houston Center
11:52AM 29.7986 -94.9683 296° West 272 313 6,000  Level Houston Center
11:53AM 29.8233 -95.0267 296° West 272 313 6,000  Level Houston Center
11:53AM 29.8314 -95.0486 293° West 272 313 6,000  Level Houston Center
11:54AM 29.8614 -95.1219 295° West 274 315 6,000  Level Houston Center
11:54AM 29.8628 -95.1197 54° Northeast 273 314 6,000 -120 Level Houston Center
11:55AM 29.8942 -95.1981 295° West 273 314 5,900  Descending Houston Center
11:55AM 29.8969 -95.2117 283° West 278 320 6,000 60 Climbing Houston Center
11:56AM 29.8997 -95.2839 273° West 275 316 6,000  Level Houston Center
11:57AM 29.8986 -95.2981 265° West 269 310 6,000  Level Houston Center
11:57AM 29.9003 -95.3681 272° West 267 307 6,000 -600 Level Houston Center
11:59AM 29.9000 -95.4469 270° West 255 293 4,900 -1,260 Descending Houston Center
12:00PM 29.9108 -95.5472 277° West 260 299 3,500 -1,380 Descending Houston Center
12:00PM 29.9103 -95.5442 102° East 263 303 3,500 -600 Level Houston Center
12:01PM 29.9644 -95.5361 North 207 238 2,900 -600 Descending Houston Center
12:01PM 29.9650 -95.5364 337° Northwest 232 267 2,900 -600 Level Houston Center
12:02PM 29.9892 -95.4825 63° Northeast 181 208 2,300 -540 Descending Houston Center
12:02PM 29.9886 -95.4836 240° Southwest 200 230 2,400 -900 Climbing Houston Center
12:03PM 29.9928 -95.4314 85° East 139 160 1,400 -900 Descending Houston Center
12:03PM 29.9944 -95.4347 300° West 171 197 1,500 -840 Climbing Houston Center
12:04PM 29.9928 -95.3833 92° East 151 174 600 -780 Descending Houston Center
12:04PM 29.9931 -95.3878 274° West 153 176 700 -240 Climbing Houston Center
12:05PM 29.9925 -95.3319 91° East 151 174 400 -300 Descending Houston Center